Terminal Aerodrome Forecast
Issued by NWS

Home | Current Version | Previous Version | Text Only | Print | Product List | Glossary On
Versions: 1 2 3 4 5 6 7 8 9 10 11 12 13
000
FTUS45 KVEF 200222 AAA
TAFVGT
TAF AMD
KVGT 200222Z 2002/2024 15012KT P6SM FEW120
     FM200400 18011KT P6SM FEW130
     FM200600 21008KT P6SM SKC
     FM200800 VRB05KT P6SM SKC
     FM201900 15011KT P6SM SCT130=

USA.gov is the U.S. government's official web portal to all federal, state and local government web resources and services.